Time;durP1;ratioP1;P1;durP2;ratioP2;P2;SDS_P1;SDS_P2;PMS_P1;PMS_P2;Temp;Humidity;BMP_temperature;BMP_pressure;BME280_temperature;BME280_humidity;BME280_pressure;Samples;Min_cycle;Max_cycle;Signal;HPM_P1;HPM_P2
2022/11/24 00:01:18;;;;;;;19.65;6.47;;;7.50;99.90;;;;;;4999190;28;20435;-54
2022/11/24 00:03:50;;;;;;;22.50;6.63;;;7.50;99.90;;;;;;5012860;28;20034;-51
2022/11/24 00:06:16;;;;;;;21.48;7.20;;;7.50;99.90;;;;;;5012617;28;20048;-53
2022/11/24 00:08:44;;;;;;;21.40;6.65;;;7.50;99.90;;;;;;5013438;28;20469;-54
2022/11/24 00:11:12;;;;;;;23.13;6.10;;;7.40;99.90;;;;;;5010073;28;20038;-55
2022/11/24 00:13:39;;;;;;;21.80;6.47;;;7.40;99.90;;;;;;5012447;28;20066;-54
2022/11/24 00:16:21;;;;;;;20.13;5.90;;;7.40;99.90;;;;;;5012488;28;20454;-55
2022/11/24 00:18:49;;;;;;;20.38;6.88;;;7.40;99.90;;;;;;5012782;28;20551;-55
2022/11/24 00:21:16;;;;;;;21.17;6.45;;;7.40;99.90;;;;;;5011239;28;20403;-52
2022/11/24 00:23:42;;;;;;;21.17;6.47;;;7.30;99.90;;;;;;5012833;28;20034;-57
2022/11/24 00:26:15;;;;;;;31.20;5.75;;;7.30;99.90;;;;;;5012957;28;20160;-56
2022/11/24 00:28:42;;;;;;;24.98;6.65;;;7.30;99.90;;;;;;5013296;28;20117;-55
2022/11/24 00:31:22;;;;;;;20.48;6.15;;;7.30;99.90;;;;;;5012192;28;20466;-53
2022/11/24 00:33:49;;;;;;;20.95;4.78;;;7.30;99.90;;;;;;5012237;28;20056;-56
2022/11/24 00:36:17;;;;;;;28.98;8.23;;;7.30;99.90;;;;;;5013229;28;20104;-55
2022/11/24 00:38:44;;;;;;;13.00;5.45;;;7.30;99.90;;;;;;5012651;28;20487;-56
2022/11/24 00:41:09;;;;;;;17.63;6.10;;;7.30;99.90;;;;;;5013165;28;20387;-54
2022/11/24 00:43:35;;;;;;;26.50;6.10;;;7.30;99.90;;;;;;4998697;28;20035;-55
2022/11/24 00:46:01;;;;;;;18.70;5.63;;;7.20;99.90;;;;;;4996990;28;20030;-58
2022/11/24 00:48:27;;;;;;;17.65;5.93;;;7.20;99.90;;;;;;5004152;28;20045;-56
2022/11/24 00:51:01;;;;;;;23.00;6.43;;;7.20;99.90;;;;;;5012646;28;20037;-57
2022/11/24 00:53:27;;;;;;;19.33;5.70;;;7.20;99.90;;;;;;5009918;28;20041;-51
2022/11/24 00:55:54;;;;;;;23.23;6.13;;;7.20;99.90;;;;;;5012887;28;20412;-54
2022/11/24 00:58:20;;;;;;;;;;;7.20;99.90;;;;;;5012239;28;20103;-54
2022/11/24 01:00:45;;;;;;;24.20;6.57;;;7.20;99.90;;;;;;5012295;28;19924;-56
2022/11/24 01:03:12;;;;;;;23.48;5.75;;;7.20;99.90;;;;;;5010389;28;20089;-53
2022/11/24 01:05:38;;;;;;;31.50;6.85;;;7.20;99.90;;;;;;5011856;28;20411;-53
2022/11/24 01:08:04;;;;;;;30.80;6.75;;;7.20;99.90;;;;;;5011966;28;20046;-54
2022/11/24 01:10:30;;;;;;;29.05;6.30;;;7.20;99.90;;;;;;5012024;28;20129;-57
2022/11/24 01:12:56;;;;;;;24.67;6.15;;;7.20;99.90;;;;;;5006084;28;20089;-51
2022/11/24 01:15:22;;;;;;;22.40;5.25;;;7.20;99.90;;;;;;5006971;28;20064;-50
2022/11/24 01:17:48;;;;;;;21.02;6.78;;;7.20;99.90;;;;;;5012111;28;20042;-53
2022/11/24 01:20:14;;;;;;;22.77;5.70;;;7.20;99.90;;;;;;5011868;28;20076;-54
2022/11/24 01:22:43;;;;;;;18.65;4.68;;;7.20;99.90;;;;;;5011651;28;20284;-56
2022/11/24 01:25:10;;;;;;;20.52;5.53;;;7.20;99.90;;;;;;5001828;28;20034;-51
2022/11/24 01:27:37;;;;;;;35.53;7.75;;;7.20;99.90;;;;;;4994463;28;20034;-51
2022/11/24 01:30:03;;;;;;;;;;;7.20;99.90;;;;;;5009407;28;20133;-52
2022/11/24 01:32:29;;;;;;;17.25;4.78;;;7.20;99.90;;;;;;4998702;28;19918;-51
2022/11/24 01:34:54;;;;;;;23.17;4.85;;;7.20;99.90;;;;;;5010677;28;20406;-51
2022/11/24 01:37:20;;;;;;;33.57;5.77;;;7.20;99.90;;;;;;4995476;28;20042;-55
2022/11/24 01:39:46;;;;;;;33.53;6.27;;;7.20;99.90;;;;;;4999897;28;20393;-55
2022/11/24 01:42:11;;;;;;;20.43;5.30;;;7.30;99.90;;;;;;5011402;28;20064;-50
2022/11/24 01:44:37;;;;;;;22.37;5.90;;;7.30;99.90;;;;;;5011239;28;20049;-50
2022/11/24 01:47:03;;;;;;;25.60;4.90;;;7.30;99.90;;;;;;5008810;28;20038;-53
2022/11/24 01:49:40;;;;;;;25.07;5.73;;;7.30;99.90;;;;;;5011237;28;20521;-56
2022/11/24 01:52:27;;;;;;;23.92;4.70;;;7.30;99.90;;;;;;4999145;28;20068;-51
2022/11/24 01:54:56;;;;;;;34.55;5.78;;;7.40;99.90;;;;;;4991512;28;20516;-57
2022/11/24 01:57:26;;;;;;;32.30;5.65;;;7.40;99.90;;;;;;5002274;28;20050;-51
2022/11/24 01:59:57;;;;;;;30.70;5.95;;;7.40;99.90;;;;;;5011571;28;20050;-53
2022/11/24 02:02:24;;;;;;;22.50;5.28;;;7.40;99.90;;;;;;5010362;28;20165;-55
2022/11/24 02:04:50;;;;;;;28.67;6.13;;;7.40;99.90;;;;;;5010515;28;20091;-56
2022/11/24 02:07:17;;;;;;;32.22;5.35;;;7.40;99.90;;;;;;5006643;28;20105;-55
2022/11/24 02:09:53;;;;;;;29.08;5.55;;;7.40;99.90;;;;;;4992947;28;20034;-51
2022/11/24 02:12:21;;;;;;;25.35;5.50;;;7.40;99.90;;;;;;4991922;28;20038;-51
2022/11/24 02:14:47;;;;;;;21.27;4.55;;;7.50;99.90;;;;;;4991351;28;20377;-53
2022/11/24 02:17:13;;;;;;;20.83;4.40;;;7.50;99.90;;;;;;4992136;28;20492;-56
2022/11/24 02:19:38;;;;;;;24.00;5.13;;;7.50;99.90;;;;;;4991446;28;20723;-54
2022/11/24 02:22:06;;;;;;;23.17;4.50;;;7.50;99.90;;;;;;4991798;28;20042;-54
2022/11/24 02:24:46;;;;;;;29.08;5.80;;;7.50;99.90;;;;;;4990932;28;20041;-51
2022/11/24 02:27:11;;;;;;;20.08;4.00;;;7.50;99.90;;;;;;4991214;28;20042;-55
2022/11/24 02:29:38;;;;;;;24.02;4.55;;;7.50;99.90;;;;;;4992154;28;20500;-54
2022/11/24 02:32:07;;;;;;;24.60;5.50;;;7.50;99.90;;;;;;4990703;28;20048;-56
2022/11/24 02:34:33;;;;;;;18.98;3.92;;;7.60;99.90;;;;;;4990861;28;20395;-53
2022/11/24 02:36:58;;;;;;;21.63;4.50;;;7.60;99.90;;;;;;4990936;28;20045;-57
2022/11/24 02:39:24;;;;;;;23.83;4.37;;;7.60;99.90;;;;;;4992188;28;20039;-54
2022/11/24 02:42:03;;;;;;;32.07;5.53;;;7.60;99.90;;;;;;5000727;28;20113;-55
2022/11/24 02:44:33;;;;;;;18.90;4.35;;;7.60;99.90;;;;;;4995790;28;20041;-55
2022/11/24 02:47:05;;;;;;;31.33;5.53;;;7.60;99.90;;;;;;4992552;28;20034;-55
2022/11/24 02:49:31;;;;;;;17.88;3.53;;;7.60;99.90;;;;;;5004079;28;20038;-53
2022/11/24 02:51:57;;;;;;;28.15;5.20;;;7.60;99.90;;;;;;4990766;28;20569;-55
2022/11/24 02:54:23;;;;;;;32.13;4.32;;;7.60;99.90;;;;;;4990528;28;20045;-56
2022/11/24 02:56:48;;;;;;;19.40;3.57;;;7.60;99.90;;;;;;4990484;28;20117;-56
2022/11/24 02:59:14;;;;;;;17.00;3.60;;;7.60;99.90;;;;;;4990578;28;20400;-54
2022/11/24 03:01:39;;;;;;;28.90;4.80;;;7.60;99.90;;;;;;5008022;28;20673;-56
2022/11/24 03:04:05;;;;;;;21.90;4.77;;;7.60;99.90;;;;;;5009045;28;20634;-54
2022/11/24 03:06:31;;;;;;;16.90;3.20;;;7.60;99.90;;;;;;5009782;28;20411;-57
2022/11/24 03:08:56;;;;;;;16.07;4.57;;;7.60;99.90;;;;;;5009935;28;20522;-55
2022/11/24 03:11:22;;;;;;;28.93;4.57;;;7.70;99.90;;;;;;4997228;28;20042;-53
2022/11/24 03:13:48;;;;;;;29.87;5.30;;;7.70;99.90;;;;;;4989893;28;20728;-52
2022/11/24 03:16:14;;;;;;;19.38;3.28;;;7.70;99.90;;;;;;4990834;28;20042;-51
2022/11/24 03:18:39;;;;;;;26.33;4.13;;;7.70;99.90;;;;;;4990562;28;20130;-52
2022/11/24 03:21:05;;;;;;;16.67;3.43;;;7.80;99.90;;;;;;4991571;28;20069;-53
2022/11/24 03:23:31;;;;;;;20.48;3.53;;;7.70;99.90;;;;;;4990234;28;20034;-57
2022/11/24 03:26:14;;;;;;;25.47;5.73;;;7.80;99.90;;;;;;4990341;28;20043;-51
2022/11/24 03:28:40;;;;;;;26.98;4.53;;;7.90;99.90;;;;;;4990797;28;20049;-53
2022/11/24 03:31:06;;;;;;;20.92;3.83;;;7.90;99.90;;;;;;4990150;28;20046;-57
2022/11/24 03:33:33;;;;;;;29.15;4.00;;;7.90;99.90;;;;;;5009964;28;20448;-51
2022/11/24 03:35:59;;;;;;;23.13;3.60;;;7.90;99.90;;;;;;5010045;28;20038;-51
2022/11/24 03:38:24;;;;;;;19.50;3.70;;;7.90;99.90;;;;;;5010360;28;20060;-51
2022/11/24 03:40:50;;;;;;;30.40;4.20;;;7.90;99.90;;;;;;4997009;28;20488;-52
2022/11/24 03:43:16;;;;;;;19.17;4.38;;;8.00;99.90;;;;;;4991297;28;20104;-57
2022/11/24 03:45:45;;;;;;;17.30;2.80;;;7.90;99.90;;;;;;4990428;28;20435;-55
2022/11/24 03:48:11;;;;;;;20.48;3.42;;;7.90;99.90;;;;;;4990543;28;20038;-54
2022/11/24 03:50:36;;;;;;;16.67;3.92;;;7.90;99.90;;;;;;4991509;28;20116;-56
2022/11/24 03:53:02;;;;;;;21.63;3.27;;;7.90;99.90;;;;;;4997623;28;20072;-54
2022/11/24 03:55:27;;;;;;;15.33;3.27;;;7.90;99.90;;;;;;5006717;28;20042;-54
2022/11/24 03:57:53;;;;;;;18.77;3.37;;;7.90;99.90;;;;;;4995640;28;20300;-51
2022/11/24 04:00:19;;;;;;;24.37;2.97;;;7.90;99.90;;;;;;5009748;28;20042;-53
2022/11/24 04:02:44;;;;;;;19.58;4.40;;;7.80;99.90;;;;;;5000417;28;20042;-53
2022/11/24 04:05:10;;;;;;;24.50;4.57;;;7.80;99.90;;;;;;4993453;28;20050;-51
2022/11/24 04:07:36;;;;;;;14.07;3.85;;;7.80;99.90;;;;;;4993507;28;20045;-54
2022/11/24 04:10:02;;;;;;;22.52;3.85;;;7.70;99.90;;;;;;4993379;28;20124;-54
2022/11/24 04:12:45;;;;;;;21.55;4.43;;;7.70;99.90;;;;;;4993900;28;20069;-51
2022/11/24 04:15:16;;;;;;;20.77;3.65;;;7.70;99.90;;;;;;5008760;28;20041;-53
2022/11/24 04:17:42;;;;;;;29.35;4.80;;;7.70;99.90;;;;;;5013748;28;20293;-51
2022/11/24 04:20:09;;;;;;;20.20;3.72;;;7.60;99.90;;;;;;5011656;28;20042;-56
2022/11/24 04:22:35;;;;;;;19.45;3.25;;;7.60;99.90;;;;;;4998086;28;20260;-53
2022/11/24 04:25:01;;;;;;;22.77;3.73;;;7.60;99.90;;;;;;4993052;28;20556;-54
2022/11/24 04:27:27;;;;;;;20.08;3.10;;;7.60;99.90;;;;;;4993571;28;20046;-55
2022/11/24 04:29:52;;;;;;;25.70;3.92;;;7.60;99.90;;;;;;4993368;28;20415;-54
2022/11/24 04:32:18;;;;;;;21.60;4.43;;;7.60;99.90;;;;;;5001930;28;20041;-52
2022/11/24 04:34:43;;;;;;;22.67;3.97;;;7.70;99.90;;;;;;5012249;28;20042;-57
2022/11/24 04:37:09;;;;;;;17.17;3.47;;;7.70;99.90;;;;;;5012505;28;20522;-54
2022/11/24 04:39:35;;;;;;;25.20;2.90;;;7.70;99.90;;;;;;5012695;28;20045;-51
2022/11/24 04:42:00;;;;;;;16.47;2.77;;;7.70;99.90;;;;;;4993512;28;20523;-51
2022/11/24 04:44:26;;;;;;;15.30;2.77;;;7.70;99.90;;;;;;4993300;28;20074;-55
2022/11/24 04:46:52;;;;;;;26.73;4.67;;;7.70;99.90;;;;;;4992916;28;20053;-56
2022/11/24 04:49:18;;;;;;;30.30;3.97;;;7.70;99.90;;;;;;4992984;28;20046;-53
2022/11/24 04:51:43;;;;;;;19.48;2.88;;;7.70;99.90;;;;;;4992564;28;20034;-55
2022/11/24 04:54:11;;;;;;;22.03;3.47;;;7.80;99.90;;;;;;4993882;28;20112;-52
2022/11/24 04:56:37;;;;;;;16.00;3.17;;;7.80;99.90;;;;;;4993063;28;20293;-54
2022/11/24 04:59:03;;;;;;;20.67;3.47;;;7.80;99.90;;;;;;4993298;28;20038;-53
2022/11/24 05:01:28;;;;;;;17.10;3.20;;;7.80;99.90;;;;;;4993336;28;20038;-53
2022/11/24 05:03:55;;;;;;;25.60;3.27;;;7.90;99.90;;;;;;5000581;28;20104;-58
2022/11/24 05:06:21;;;;;;;24.83;3.75;;;7.80;99.90;;;;;;5012271;28;20161;-55
2022/11/24 05:08:47;;;;;;;23.63;4.03;;;7.80;99.90;;;;;;5011375;28;20457;-57
2022/11/24 05:11:13;;;;;;;28.42;4.07;;;7.80;99.90;;;;;;5012369;28;20402;-53
2022/11/24 05:13:39;;;;;;;18.38;3.50;;;7.80;99.90;;;;;;5010280;28;20035;-56
2022/11/24 05:16:05;;;;;;;22.92;3.55;;;7.80;99.90;;;;;;5012131;28;20491;-57
2022/11/24 05:18:31;;;;;;;21.65;3.55;;;7.80;99.90;;;;;;5011321;28;20426;-55
2022/11/24 05:20:57;;;;;;;23.57;3.93;;;7.80;99.90;;;;;;5012180;28;20042;-55
2022/11/24 05:23:24;;;;;;;21.15;3.67;;;7.80;99.90;;;;;;5011736;28;20117;-56
2022/11/24 05:25:50;;;;;;;23.73;3.22;;;7.80;99.90;;;;;;4996791;28;20089;-55
2022/11/24 05:28:16;;;;;;;21.55;2.85;;;7.80;99.90;;;;;;4992477;28;20172;-53
2022/11/24 05:30:42;;;;;;;18.42;2.53;;;7.70;99.90;;;;;;4992161;28;20038;-54
2022/11/24 05:33:17;;;;;;;23.88;4.28;;;7.70;99.90;;;;;;4991489;28;20080;-53
2022/11/24 05:35:43;;;;;;;14.15;2.95;;;7.70;99.90;;;;;;4992021;28;20057;-51
2022/11/24 05:38:09;;;;;;;24.75;3.45;;;7.70;99.90;;;;;;4992501;28;20066;-54
2022/11/24 05:40:35;;;;;;;18.33;3.72;;;7.70;99.90;;;;;;4992093;28;20070;-53
2022/11/24 05:43:00;;;;;;;22.83;4.45;;;7.70;99.90;;;;;;4991530;28;20039;-54
2022/11/24 05:45:26;;;;;;;18.63;3.83;;;7.70;99.90;;;;;;4993840;28;20077;-52
2022/11/24 05:47:52;;;;;;;21.60;3.33;;;7.70;99.90;;;;;;5011490;28;20046;-52
2022/11/24 05:50:20;;;;;;;23.77;5.55;;;7.70;99.90;;;;;;5011797;28;20052;-53
2022/11/24 05:52:46;;;;;;;22.58;5.00;;;7.70;99.90;;;;;;5011205;28;20038;-52
2022/11/24 05:55:13;;;;;;;16.27;3.35;;;7.70;99.90;;;;;;5011588;28;20045;-53
2022/11/24 05:57:39;;;;;;;15.18;2.88;;;7.70;99.90;;;;;;5009485;28;20042;-55
2022/11/24 06:00:06;;;;;;;20.27;4.93;;;7.70;99.90;;;;;;5011275;28;20041;-52
2022/11/24 06:02:31;;;;;;;14.93;3.13;;;7.70;99.90;;;;;;5009075;28;20450;-53
2022/11/24 06:04:57;;;;;;;21.03;5.17;;;7.70;99.90;;;;;;4995827;28;20030;-51
2022/11/24 06:07:23;;;;;;;27.63;4.57;;;7.70;99.90;;;;;;5000774;28;20038;-51
2022/11/24 06:09:49;;;;;;;28.33;4.05;;;7.70;99.90;;;;;;5003280;28;20038;-51
2022/11/24 06:12:15;;;;;;;20.20;3.03;;;7.70;99.90;;;;;;5008849;28;20103;-53
2022/11/24 06:14:41;;;;;;;26.53;4.63;;;7.70;99.90;;;;;;5010637;28;20129;-58
2022/11/24 06:17:07;;;;;;;15.57;3.25;;;7.70;99.90;;;;;;5008579;28;20293;-56
2022/11/24 06:19:32;;;;;;;14.70;2.97;;;7.70;99.90;;;;;;5010826;28;20037;-57
2022/11/24 06:21:58;;;;;;;22.00;4.90;;;7.60;99.90;;;;;;5010972;28;20040;-55
2022/11/24 06:24:23;;;;;;;23.20;3.63;;;7.70;99.90;;;;;;5010768;28;20045;-51
2022/11/24 06:26:49;;;;;;;16.13;3.00;;;7.70;99.90;;;;;;5011449;28;20069;-54
2022/11/24 06:29:15;;;;;;;24.40;4.77;;;7.70;99.90;;;;;;5008839;28;20042;-51
2022/11/24 06:31:41;;;;;;;30.30;3.53;;;7.70;99.90;;;;;;5011024;28;20561;-54
2022/11/24 06:34:09;;;;;;;20.37;3.70;;;7.80;99.90;;;;;;5009987;28;20045;-51
2022/11/24 06:36:35;;;;;;;28.65;3.55;;;7.80;99.90;;;;;;5010181;28;20042;-53
2022/11/24 06:39:01;;;;;;;26.57;3.60;;;7.80;99.90;;;;;;5009317;28;20361;-52
2022/11/24 06:41:27;;;;;;;23.00;4.10;;;7.80;99.90;;;;;;5010222;28;20049;-52
2022/11/24 06:43:53;;;;;;;27.53;5.43;;;7.80;99.90;;;;;;5008330;28;20403;-54
2022/11/24 06:46:19;;;;;;;16.33;2.53;;;7.80;99.90;;;;;;5010069;28;20526;-54
2022/11/24 06:48:46;;;;;;;19.00;4.07;;;7.90;99.90;;;;;;5009309;28;20529;-51
2022/11/24 06:51:12;;;;;;;36.35;5.90;;;7.90;99.90;;;;;;4991500;28;20046;-54
2022/11/24 06:53:39;;;;;;;23.95;3.78;;;7.90;99.90;;;;;;4990499;28;20109;-55
2022/11/24 06:56:07;;;;;;;20.35;4.13;;;7.90;99.90;;;;;;4990600;28;20117;-55
2022/11/24 06:58:32;;;;;;;24.83;4.20;;;7.90;99.90;;;;;;5000300;28;20073;-55
2022/11/24 07:00:58;;;;;;;23.83;4.23;;;7.90;99.90;;;;;;4996277;28;20555;-55
2022/11/24 07:03:23;;;;;;;23.97;4.40;;;7.90;99.90;;;;;;4990388;28;20515;-55
2022/11/24 07:05:55;;;;;;;20.30;4.60;;;7.90;99.90;;;;;;4990711;28;20519;-52
2022/11/24 07:08:21;;;;;;;28.08;4.70;;;8.00;99.90;;;;;;4990608;28;20057;-56
2022/11/24 07:10:46;;;;;;;24.63;4.73;;;8.00;99.90;;;;;;4991853;28;20038;-52
2022/11/24 07:13:12;;;;;;;18.47;3.93;;;8.00;99.90;;;;;;4990222;28;20381;-55
2022/11/24 07:15:37;;;;;;;23.33;4.47;;;8.00;99.90;;;;;;4990516;28;20049;-51
2022/11/24 07:18:03;;;;;;;20.53;4.10;;;7.90;99.90;;;;;;4991529;28;20075;-54
2022/11/24 07:20:29;;;;;;;17.67;3.97;;;7.90;99.90;;;;;;5000095;28;20057;-52
2022/11/24 07:22:56;;;;;;;22.13;3.83;;;7.90;99.90;;;;;;5006671;28;20391;-58
2022/11/24 07:25:22;;;;;;;16.58;3.70;;;7.90;99.90;;;;;;4990605;28;20109;-54
2022/11/24 07:27:47;;;;;;;30.02;4.90;;;7.90;99.90;;;;;;4990130;28;20554;-55
2022/11/24 07:30:13;;;;;;;32.40;4.73;;;7.90;99.90;;;;;;4990630;28;20042;-56
2022/11/24 07:32:38;;;;;;;20.35;3.42;;;7.90;99.90;;;;;;4995042;28;20043;-58
2022/11/24 07:35:04;;;;;;;19.73;3.10;;;7.90;99.90;;;;;;4993833;28;20488;-53
2022/11/24 07:37:30;;;;;;;21.60;4.40;;;7.90;99.90;;;;;;4994546;28;20516;-52
2022/11/24 07:39:55;;;;;;;16.07;3.30;;;7.90;99.90;;;;;;4994231;28;20136;-54
2022/11/24 07:42:21;;;;;;;22.07;3.43;;;7.80;99.90;;;;;;5001593;28;20068;-58
2022/11/24 07:44:47;;;;;;;15.02;3.72;;;7.80;99.90;;;;;;5014775;28;20125;-57
2022/11/24 07:47:12;;;;;;;17.30;5.90;;;7.90;99.90;;;;;;4994309;28;20038;-54
2022/11/24 07:49:38;;;;;;;21.20;3.90;;;7.90;99.90;;;;;;4994414;28;20045;-55
2022/11/24 07:52:04;;;;;;;15.40;3.60;;;7.90;99.90;;;;;;4994163;28;20512;-53
2022/11/24 07:54:30;;;;;;;22.70;4.93;;;7.90;99.90;;;;;;5011454;28;20388;-54
2022/11/24 07:56:55;;;;;;;15.95;4.97;;;7.90;99.90;;;;;;5012954;28;20038;-54
2022/11/24 07:59:21;;;;;;;22.08;5.15;;;7.90;99.90;;;;;;5031359;28;20171;-51
2022/11/24 08:01:47;;;;;;;20.33;3.87;;;7.90;99.90;;;;;;5013650;28;20133;-51
2022/11/24 08:04:12;;;;;;;22.67;4.27;;;8.00;99.90;;;;;;5005769;28;20042;-53
2022/11/24 08:06:38;;;;;;;23.92;6.22;;;8.00;99.90;;;;;;5008977;28;20045;-53
2022/11/24 08:09:03;;;;;;;23.03;4.23;;;8.00;99.90;;;;;;5012366;28;20070;-54
2022/11/24 08:11:30;;;;;;;14.60;3.43;;;8.00;99.90;;;;;;5002284;28;20506;-54
2022/11/24 08:13:56;;;;;;;18.65;3.92;;;8.00;99.90;;;;;;5006739;28;20507;-51
2022/11/24 08:16:21;;;;;;;19.58;4.07;;;8.00;99.90;;;;;;5006851;28;20053;-53
2022/11/24 08:18:52;;;;;;;16.93;3.20;;;8.00;99.90;;;;;;4994481;28;20050;-51
2022/11/24 08:21:18;;;;;;;26.65;4.00;;;8.00;99.90;;;;;;5003833;28;20041;-51
2022/11/24 08:23:43;;;;;;;16.90;4.60;;;8.10;99.90;;;;;;5003109;28;20045;-50
2022/11/24 08:26:16;;;;;;;22.80;4.77;;;8.10;99.90;;;;;;5003101;28;20042;-56
2022/11/24 08:28:42;;;;;;;19.67;4.45;;;8.10;99.90;;;;;;5013005;28;20046;-51
2022/11/24 08:31:15;;;;;;;;;;;8.10;99.90;;;;;;5023799;28;20048;-51
2022/11/24 08:33:41;;;;;;;16.92;3.70;;;8.10;99.90;;;;;;5032327;28;19926;-53
2022/11/24 08:36:10;;;;;;;14.95;3.78;;;8.30;99.90;;;;;;5003358;28;20038;-52
2022/11/24 08:38:35;;;;;;;16.70;2.88;;;8.40;99.90;;;;;;4995727;28;20044;-50
2022/11/24 08:41:03;;;;;;;12.97;3.13;;;8.70;99.90;;;;;;5000494;28;20026;-51
2022/11/24 08:43:28;;;;;;;16.58;3.53;;;9.20;99.90;;;;;;4996274;28;20031;-53
2022/11/24 08:45:57;;;;;;;10.35;2.20;;;9.90;99.90;;;;;;5002281;28;20041;-55
2022/11/24 08:48:23;;;;;;;14.15;2.75;;;10.60;99.90;;;;;;5005637;28;20444;-54
2022/11/24 08:50:48;;;;;;;13.47;2.90;;;11.30;99.90;;;;;;4994926;28;20081;-56
2022/11/24 08:53:14;;;;;;;15.43;1.87;;;12.00;99.90;;;;;;5010332;28;20412;-51
2022/11/24 08:55:39;;;;;;;10.13;2.00;;;12.60;99.90;;;;;;5008121;28;20034;-53
2022/11/24 08:58:05;;;;;;;7.77;1.50;;;13.10;99.90;;;;;;4993974;28;20340;-57
2022/11/24 09:00:30;;;;;;;12.20;2.20;;;13.40;99.90;;;;;;4992779;28;20109;-51
2022/11/24 09:02:57;;;;;;;10.93;2.40;;;13.50;99.90;;;;;;4996658;28;20503;-53
2022/11/24 09:05:23;;;;;;;10.43;2.30;;;13.70;99.90;;;;;;5000636;28;20049;-51
2022/11/24 09:07:49;;;;;;;11.63;1.70;;;14.00;99.90;;;;;;5004958;28;20089;-52
2022/11/24 09:10:15;;;;;;;11.45;1.90;;;14.60;99.90;;;;;;5008154;28;20038;-51
2022/11/24 09:12:43;;;;;;;8.63;1.70;;;14.80;99.90;;;;;;4992619;28;20042;-59
2022/11/24 09:15:09;;;;;;;8.75;1.60;;;15.10;99.90;;;;;;4992548;28;20088;-52
2022/11/24 09:17:35;;;;;;;6.85;1.50;;;15.20;99.90;;;;;;4993687;28;20113;-54
2022/11/24 09:20:01;;;;;;;4.90;1.00;;;15.40;99.90;;;;;;4992591;28;20477;-56
2022/11/24 09:22:28;;;;;;;5.95;0.88;;;15.90;99.90;;;;;;5001568;28;20049;-57
2022/11/24 09:24:54;;;;;;;6.78;1.27;;;16.30;99.90;;;;;;5006401;28;20505;-59
2022/11/24 09:27:19;;;;;;;4.30;1.02;;;16.60;99.90;;;;;;4996719;28;20121;-58
2022/11/24 09:29:45;;;;;;;6.40;1.17;;;16.90;99.90;;;;;;5011835;28;20045;-59
2022/11/24 09:32:10;;;;;;;5.20;1.02;;;17.30;99.90;;;;;;5011320;28;20108;-59
2022/11/24 09:34:36;;;;;;;4.72;1.58;;;17.60;99.90;;;;;;4998686;28;20529;-55
2022/11/24 09:37:01;;;;;;;3.42;1.27;;;17.90;99.90;;;;;;5011312;28;20049;-53
2022/11/24 09:39:27;;;;;;;2.45;0.93;;;18.10;99.90;;;;;;4996558;28;20553;-57
2022/11/24 09:42:01;;;;;;;3.60;1.00;;;17.60;97.90;;;;;;4995875;28;20038;-59
2022/11/24 09:44:59;;;;;;;4.20;0.80;;;16.80;99.10;;;;;;5009764;28;20045;-59
2022/11/24 09:47:36;;;;;;;;;;;16.30;99.90;;;;;;4988991;28;20049;-56
2022/11/24 09:50:09;;;;;;;8.77;1.65;;;16.30;99.90;;;;;;4987491;28;19963;-56
2022/11/24 09:53:02;;;;;;;2.33;0.90;;;16.70;99.90;;;;;;4988459;28;20104;-56
2022/11/24 09:55:36;;;;;;;2.60;1.50;;;17.20;99.90;;;;;;4982908;28;20061;-56
2022/11/24 09:58:20;;;;;;;3.92;1.23;;;17.60;99.80;;;;;;4980499;28;20051;-58
2022/11/24 10:00:48;;;;;;;4.53;1.52;;;18.10;99.20;;;;;;4984339;28;20125;-56
2022/11/24 10:03:18;;;;;;;4.82;1.60;;;18.50;98.50;;;;;;4987712;28;20453;-56
2022/11/24 10:05:46;;;;;;;2.00;0.82;;;18.70;97.40;;;;;;4988982;28;20047;-55
2022/11/24 10:08:32;;;;;;;4.28;1.33;;;18.70;96.90;;;;;;4973770;28;20047;-55
2022/11/24 10:10:59;;;;;;;3.95;1.27;;;18.70;95.50;;;;;;4976377;28;20047;-58
2022/11/24 10:13:59;;;;;;;5.00;2.22;;;18.60;97.20;;;;;;4970934;28;20058;-54
2022/11/24 10:16:48;;;;;;;4.25;1.83;;;18.10;95.20;;;;;;4965150;28;20834;-53
2022/11/24 10:19:21;;;;;;;6.03;1.90;;;17.20;96.40;;;;;;4968046;28;20121;-52
2022/11/24 10:22:07;;;;;;;4.22;1.60;;;16.40;97.80;;;;;;4972282;28;20051;-54
2022/11/24 10:24:47;;;;;;;8.48;2.08;;;15.70;99.00;;;;;;4992092;28;20097;-52
2022/11/24 10:27:29;;;;;;;5.78;2.67;;;15.20;99.90;;;;;;4990107;28;20543;-51
2022/11/24 10:29:55;;;;;;;4.30;1.92;;;15.40;99.90;;;;;;4991325;28;20447;-55
2022/11/24 10:32:28;;;;;;;4.20;2.10;;;16.20;99.90;;;;;;4992384;28;20065;-52
2022/11/24 10:34:59;;;;;;;5.15;2.65;;;16.80;99.90;;;;;;5001248;28;20038;-55
2022/11/24 10:37:31;;;;;;;8.05;3.17;;;17.40;99.20;;;;;;5010174;28;20084;-53
2022/11/24 10:40:23;;;;;;;7.13;2.97;;;17.30;97.90;;;;;;4999456;28;20077;-55
2022/11/24 10:42:50;;;;;;;9.80;3.15;;;17.10;98.20;;;;;;4989722;28;20412;-51
2022/11/24 10:45:21;;;;;;;6.97;3.53;;;16.80;97.90;;;;;;4990678;28;20558;-53
2022/11/24 10:47:47;;;;;;;7.45;3.80;;;16.30;99.10;;;;;;4990284;28;20046;-52
2022/11/24 10:50:25;;;;;;;5.88;3.40;;;16.10;99.90;;;;;;4992131;28;20045;-55
2022/11/24 10:53:33;;;;;;;4.68;3.38;;;16.00;99.70;;;;;;4990433;28;20122;-57
2022/11/24 10:56:01;;;;;;;10.95;3.80;;;15.40;99.80;;;;;;4989599;28;20045;-54
2022/11/24 10:58:28;;;;;;;6.30;4.22;;;15.10;99.90;;;;;;4990515;28;20046;-52
2022/11/24 11:00:57;;;;;;;13.77;4.57;;;14.90;99.90;;;;;;4993378;28;20070;-52
2022/11/24 11:03:31;;;;;;;7.15;3.95;;;14.70;99.90;;;;;;5009656;28;20526;-53
2022/11/24 11:06:12;;;;;;;5.47;3.65;;;14.80;99.90;;;;;;5008168;28;20050;-53
2022/11/24 11:08:38;;;;;;;6.85;4.10;;;14.90;99.90;;;;;;5010408;28;20034;-55
2022/11/24 11:11:27;;;;;;;6.10;3.90;;;15.20;99.90;;;;;;5009685;28;20046;-55
2022/11/24 11:14:03;;;;;;;6.95;5.10;;;15.30;99.90;;;;;;4989036;28;20113;-53
2022/11/24 11:16:32;;;;;;;4.88;3.35;;;15.40;99.90;;;;;;4990530;28;20058;-51
2022/11/24 11:19:00;;;;;;;6.18;4.30;;;15.80;99.90;;;;;;4990165;28;20039;-58
2022/11/24 11:21:38;;;;;;;7.72;4.28;;;15.80;99.90;;;;;;4990679;28;20100;-56
2022/11/24 11:24:17;;;;;;;7.05;3.85;;;16.20;99.90;;;;;;5008995;28;20073;-55
2022/11/24 11:26:43;;;;;;;7.38;4.75;;;16.70;99.90;;;;;;4989851;28;20089;-53
2022/11/24 11:29:18;;;;;;;7.07;4.10;;;17.00;99.90;;;;;;4990070;28;20034;-56
2022/11/24 11:32:03;;;;;;;6.88;5.22;;;17.40;99.90;;;;;;4988709;28;20141;-58
2022/11/24 11:34:35;;;;;;;6.85;4.63;;;18.00;99.40;;;;;;4991217;28;20455;-56
2022/11/24 11:37:02;;;;;;;9.38;4.72;;;18.10;98.20;;;;;;4990659;28;20030;-51
2022/11/24 11:39:40;;;;;;;11.35;5.22;;;18.30;98.40;;;;;;4990287;28;20524;-56
2022/11/24 11:42:17;;;;;;;6.60;3.92;;;18.70;97.30;;;;;;4989897;28;20447;-54
2022/11/24 11:44:51;;;;;;;4.50;3.90;;;19.30;97.00;;;;;;4991127;28;20038;-53
2022/11/24 11:47:32;;;;;;;8.07;4.03;;;19.60;95.40;;;;;;4990210;28;20076;-53
2022/11/24 11:49:58;;;;;;;5.75;4.05;;;19.50;95.20;;;;;;4996861;28;20061;-51
2022/11/24 11:52:26;;;;;;;8.27;4.05;;;19.60;94.70;;;;;;4995886;28;20081;-54
2022/11/24 11:55:37;;;;;;;8.60;4.90;;;19.70;94.60;;;;;;4998565;28;20061;-55
2022/11/24 11:58:32;;;;;;;6.35;4.88;;;20.00;94.00;;;;;;5011222;28;20046;-54
2022/11/24 12:01:10;;;;;;;8.73;5.00;;;20.20;93.70;;;;;;5026169;28;20056;-52
2022/11/24 12:03:49;;;;;;;11.93;5.18;;;20.70;93.00;;;;;;5001085;28;20442;-54
2022/11/24 12:06:38;;;;;;;9.75;5.70;;;21.10;91.60;;;;;;5004161;28;20046;-54
2022/11/24 12:09:29;;;;;;;9.85;4.22;;;21.40;91.90;;;;;;5008667;28;20042;-54
2022/11/24 12:12:19;;;;;;;10.32;4.57;;;21.50;89.90;;;;;;5018561;28;20126;-56
2022/11/24 12:15:20;;;;;;;10.48;4.43;;;21.20;87.80;;;;;;5008523;28;20040;-55
2022/11/24 12:17:56;;;;;;;7.70;4.30;;;21.30;89.60;;;;;;5011154;28;20113;-59
2022/11/24 12:21:06;;;;;;;12.90;5.30;;;21.30;87.50;;;;;;5000231;28;20130;-53
2022/11/24 12:23:51;;;;;;;7.72;3.65;;;21.00;87.10;;;;;;4996329;28;20280;-55
2022/11/24 12:26:25;;;;;;;13.27;3.38;;;20.60;88.30;;;;;;5001346;28;20129;-55
2022/11/24 12:29:24;;;;;;;10.45;5.05;;;20.90;90.60;;;;;;5008133;28;20409;-54
2022/11/24 12:32:14;;;;;;;10.43;4.60;;;20.90;88.00;;;;;;5008477;28;20435;-56
2022/11/24 12:34:51;;;;;;;10.32;4.28;;;21.30;89.20;;;;;;5005184;28;20074;-56
2022/11/24 12:37:39;;;;;;;14.13;4.68;;;21.30;85.30;;;;;;5004441;28;20046;-58
2022/11/24 12:40:23;;;;;;;10.25;4.07;;;21.20;84.80;;;;;;4993397;28;20042;-56
2022/11/24 12:43:12;;;;;;;7.35;2.83;;;21.20;86.20;;;;;;4996900;28;20077;-53
2022/11/24 12:45:47;;;;;;;13.18;3.33;;;21.30;88.50;;;;;;5012848;28;20030;-55
2022/11/24 12:48:15;;;;;;;9.38;3.22;;;21.60;86.50;;;;;;5011675;28;20069;-51
2022/11/24 12:50:43;;;;;;;8.52;2.63;;;21.80;85.80;;;;;;5005961;28;20065;-54
2022/11/24 12:53:20;;;;;;;12.77;3.63;;;21.90;84.50;;;;;;5010373;28;20104;-56
2022/11/24 12:55:47;;;;;;;7.93;2.63;;;22.10;82.80;;;;;;5012312;28;20046;-57
2022/11/24 12:58:37;;;;;;;9.63;2.65;;;22.40;83.60;;;;;;5010418;28;20129;-53
2022/11/24 13:01:03;;;;;;;16.90;3.45;;;22.30;80.10;;;;;;5004595;28;20490;-53